sensor_id;sensor_type;location;lat;lon;timestamp;pressure;altitude;pressure_sealevel;temperature;humidity
52653;BME280;39353;42.864;12.014;2023-07-08T00:02:12;98019.15;;;26.60;48.82
52653;BME280;39353;42.864;12.014;2023-07-08T00:04:40;98029.40;;;26.55;49.00
52653;BME280;39353;42.864;12.014;2023-07-08T00:07:11;98028.33;;;26.50;49.08
52653;BME280;39353;42.864;12.014;2023-07-08T00:09:53;98026.38;;;26.52;49.15
52653;BME280;39353;42.864;12.014;2023-07-08T00:12:20;98029.52;;;26.56;49.02
52653;BME280;39353;42.864;12.014;2023-07-08T00:14:46;98029.70;;;26.57;48.72
52653;BME280;39353;42.864;12.014;2023-07-08T00:17:28;98033.61;;;26.50;48.78
52653;BME280;39353;42.864;12.014;2023-07-08T00:19:54;98041.82;;;26.46;49.03
52653;BME280;39353;42.864;12.014;2023-07-08T00:22:36;98045.05;;;26.44;49.27
52653;BME280;39353;42.864;12.014;2023-07-08T00:25:19;98052.35;;;26.45;49.10
52653;BME280;39353;42.864;12.014;2023-07-08T00:54:25;98003.52;;;26.14;50.72
52653;BME280;39353;42.864;12.014;2023-07-08T00:57:05;98000.55;;;26.15;49.96
52653;BME280;39353;42.864;12.014;2023-07-08T00:59:47;98002.62;;;26.13;49.43
52653;BME280;39353;42.864;12.014;2023-07-08T01:02:21;97997.68;;;26.12;49.05
52653;BME280;39353;42.864;12.014;2023-07-08T01:05:06;98001.16;;;26.14;48.93
52653;BME280;39353;42.864;12.014;2023-07-08T01:07:44;98002.39;;;26.12;48.41
52653;BME280;39353;42.864;12.014;2023-07-08T01:10:21;98002.54;;;26.10;48.19
52653;BME280;39353;42.864;12.014;2023-07-08T01:13:08;98001.71;;;26.09;47.87
52653;BME280;39353;42.864;12.014;2023-07-08T01:15:51;97994.59;;;26.07;47.52
52653;BME280;39353;42.864;12.014;2023-07-08T01:18:34;97983.48;;;26.07;47.19
52653;BME280;39353;42.864;12.014;2023-07-08T01:21:05;97978.82;;;26.08;47.13
52653;BME280;39353;42.864;12.014;2023-07-08T01:23:35;97995.50;;;26.10;46.53
52653;BME280;39353;42.864;12.014;2023-07-08T01:26:03;98010.38;;;26.07;46.15
52653;BME280;39353;42.864;12.014;2023-07-08T01:28:31;98008.14;;;26.08;46.09
52653;BME280;39353;42.864;12.014;2023-07-08T01:31:00;98005.79;;;26.09;46.05
52653;BME280;39353;42.864;12.014;2023-07-08T01:33:29;97995.66;;;26.09;46.18
52653;BME280;39353;42.864;12.014;2023-07-08T01:35:56;97982.58;;;26.07;46.21
52653;BME280;39353;42.864;12.014;2023-07-08T01:38:39;97986.73;;;26.07;46.27
52653;BME280;39353;42.864;12.014;2023-07-08T01:41:22;97990.48;;;26.05;46.26
52653;BME280;39353;42.864;12.014;2023-07-08T01:43:49;97984.34;;;26.02;46.21
52653;BME280;39353;42.864;12.014;2023-07-08T01:46:24;97976.11;;;26.01;46.32
52653;BME280;39353;42.864;12.014;2023-07-08T01:48:58;97972.09;;;26.03;46.40
52653;BME280;39353;42.864;12.014;2023-07-08T01:51:27;97968.77;;;25.99;46.62
52653;BME280;39353;42.864;12.014;2023-07-08T01:53:54;97968.70;;;25.98;46.60
52653;BME280;39353;42.864;12.014;2023-07-08T01:56:24;97962.21;;;25.98;46.63
52653;BME280;39353;42.864;12.014;2023-07-08T01:59:06;97968.48;;;25.98;46.54
52653;BME280;39353;42.864;12.014;2023-07-08T02:01:47;97976.23;;;26.01;46.12
52653;BME280;39353;42.864;12.014;2023-07-08T02:04:30;97988.19;;;26.00;45.90
52653;BME280;39353;42.864;12.014;2023-07-08T02:07:11;97991.71;;;25.99;45.84
52653;BME280;39353;42.864;12.014;2023-07-08T02:09:53;97995.08;;;26.00;45.47
52653;BME280;39353;42.864;12.014;2023-07-08T02:12:34;97998.44;;;25.94;45.04
52653;BME280;39353;42.864;12.014;2023-07-08T02:15:21;97999.00;;;25.92;45.13
52653;BME280;39353;42.864;12.014;2023-07-08T02:18:03;98000.06;;;25.87;45.07
52653;BME280;39353;42.864;12.014;2023-07-08T02:20:33;98004.79;;;25.84;45.07
52653;BME280;39353;42.864;12.014;2023-07-08T02:23:01;98006.06;;;25.84;45.24
52653;BME280;39353;42.864;12.014;2023-07-08T02:25:54;98004.59;;;25.79;45.86
52653;BME280;39353;42.864;12.014;2023-07-08T02:28:35;98003.70;;;25.75;46.69
52653;BME280;39353;42.864;12.014;2023-07-08T02:31:03;97990.28;;;25.75;47.09
52653;BME280;39353;42.864;12.014;2023-07-08T02:33:45;97980.98;;;25.74;47.55
52653;BME280;39353;42.864;12.014;2023-07-08T02:36:26;97986.09;;;25.71;48.04
52653;BME280;39353;42.864;12.014;2023-07-08T02:38:53;97989.17;;;25.72;48.14
52653;BME280;39353;42.864;12.014;2023-07-08T02:41:34;97984.05;;;25.67;48.22
52653;BME280;39353;42.864;12.014;2023-07-08T02:44:04;97974.59;;;25.65;48.43
52653;BME280;39353;42.864;12.014;2023-07-08T02:46:46;97973.07;;;25.63;48.65
52653;BME280;39353;42.864;12.014;2023-07-08T02:49:13;97965.61;;;25.61;48.65
52653;BME280;39353;42.864;12.014;2023-07-08T02:51:54;97961.45;;;25.62;48.78
52653;BME280;39353;42.864;12.014;2023-07-08T02:54:23;97964.23;;;25.60;48.76
52653;BME280;39353;42.864;12.014;2023-07-08T02:56:51;97965.42;;;25.56;48.83
52653;BME280;39353;42.864;12.014;2023-07-08T02:59:32;97966.52;;;25.55;48.82
52653;BME280;39353;42.864;12.014;2023-07-08T03:02:16;97973.89;;;25.60;48.58
52653;BME280;39353;42.864;12.014;2023-07-08T03:04:57;97983.16;;;25.61;48.14
52653;BME280;39353;42.864;12.014;2023-07-08T03:07:27;97975.26;;;25.57;47.89
52653;BME280;39353;42.864;12.014;2023-07-08T03:09:55;97969.30;;;25.52;47.63
52653;BME280;39353;42.864;12.014;2023-07-08T03:12:36;97970.84;;;25.49;47.72
52653;BME280;39353;42.864;12.014;2023-07-08T03:15:21;97971.61;;;25.47;47.47
52653;BME280;39353;42.864;12.014;2023-07-08T03:17:49;97968.00;;;25.47;47.33
52653;BME280;39353;42.864;12.014;2023-07-08T03:20:17;97961.47;;;25.48;47.21
52653;BME280;39353;42.864;12.014;2023-07-08T03:22:58;97960.48;;;25.51;47.10
52653;BME280;39353;42.864;12.014;2023-07-08T03:25:40;97958.20;;;25.52;47.10
52653;BME280;39353;42.864;12.014;2023-07-08T03:28:08;97950.05;;;25.57;46.95
52653;BME280;39353;42.864;12.014;2023-07-08T03:30:57;97954.69;;;25.55;46.47
52653;BME280;39353;42.864;12.014;2023-07-08T03:33:25;97955.39;;;25.54;46.45
52653;BME280;39353;42.864;12.014;2023-07-08T03:36:17;97957.35;;;25.53;46.35
52653;BME280;39353;42.864;12.014;2023-07-08T03:39:00;97948.68;;;25.51;46.34
52653;BME280;39353;42.864;12.014;2023-07-08T03:41:43;97940.63;;;25.52;46.56
52653;BME280;39353;42.864;12.014;2023-07-08T03:44:12;97940.71;;;25.51;46.45
52653;BME280;39353;42.864;12.014;2023-07-08T03:46:40;97937.87;;;25.44;47.43
52653;BME280;39353;42.864;12.014;2023-07-08T03:49:24;97938.92;;;25.42;47.44
52653;BME280;39353;42.864;12.014;2023-07-08T03:52:14;97936.36;;;25.41;47.50
52653;BME280;39353;42.864;12.014;2023-07-08T03:54:58;97923.95;;;25.38;48.16
52653;BME280;39353;42.864;12.014;2023-07-08T03:57:26;97921.24;;;25.37;48.66
52653;BME280;39353;42.864;12.014;2023-07-08T03:59:53;97919.52;;;25.34;48.53
52653;BME280;39353;42.864;12.014;2023-07-08T04:02:39;97909.98;;;25.37;48.10
52653;BME280;39353;42.864;12.014;2023-07-08T04:05:22;97907.15;;;25.36;48.01
52653;BME280;39353;42.864;12.014;2023-07-08T04:08:04;97916.30;;;25.37;47.72
52653;BME280;39353;42.864;12.014;2023-07-08T04:10:45;97913.11;;;25.37;47.47
52653;BME280;39353;42.864;12.014;2023-07-08T04:13:12;97909.73;;;25.41;47.56
52653;BME280;39353;42.864;12.014;2023-07-08T04:15:40;97908.89;;;25.41;47.35
52653;BME280;39353;42.864;12.014;2023-07-08T04:18:08;97903.75;;;25.43;47.41
52653;BME280;39353;42.864;12.014;2023-07-08T04:20:49;97901.41;;;25.42;47.48
52653;BME280;39353;42.864;12.014;2023-07-08T04:23:19;97895.26;;;25.42;47.30
52653;BME280;39353;42.864;12.014;2023-07-08T04:26:02;97891.45;;;25.45;47.34
52653;BME280;39353;42.864;12.014;2023-07-08T04:28:30;97890.08;;;25.44;47.74
52653;BME280;39353;42.864;12.014;2023-07-08T04:30:58;97884.59;;;25.44;47.81
52653;BME280;39353;42.864;12.014;2023-07-08T04:33:39;97886.27;;;25.41;48.50
52653;BME280;39353;42.864;12.014;2023-07-08T04:36:21;97888.83;;;25.42;48.78
52653;BME280;39353;42.864;12.014;2023-07-08T04:38:51;97890.77;;;25.41;48.79
52653;BME280;39353;42.864;12.014;2023-07-08T04:41:19;97884.56;;;25.37;48.63
52653;BME280;39353;42.864;12.014;2023-07-08T04:43:46;97891.63;;;25.37;48.66
52653;BME280;39353;42.864;12.014;2023-07-08T04:46:22;97898.45;;;25.37;48.79
52653;BME280;39353;42.864;12.014;2023-07-08T04:49:08;97894.83;;;25.35;48.95
52653;BME280;39353;42.864;12.014;2023-07-08T04:51:53;97888.14;;;25.35;48.88
52653;BME280;39353;42.864;12.014;2023-07-08T04:54:21;97887.45;;;25.34;48.89
52653;BME280;39353;42.864;12.014;2023-07-08T04:56:49;97895.02;;;25.39;48.68
52653;BME280;39353;42.864;12.014;2023-07-08T04:59:18;97890.86;;;25.37;48.47
52653;BME280;39353;42.864;12.014;2023-07-08T05:01:46;97886.84;;;25.37;48.28
52653;BME280;39353;42.864;12.014;2023-07-08T05:04:16;97881.88;;;25.36;49.52
52653;BME280;39353;42.864;12.014;2023-07-08T05:06:58;97873.72;;;25.34;50.41
52653;BME280;39353;42.864;12.014;2023-07-08T05:09:25;97875.63;;;25.30;51.12
52653;BME280;39353;42.864;12.014;2023-07-08T05:12:08;97870.09;;;25.27;51.66
52653;BME280;39353;42.864;12.014;2023-07-08T05:14:52;97872.45;;;25.25;51.87
52653;BME280;39353;42.864;12.014;2023-07-08T05:17:34;97887.54;;;25.23;51.88
52653;BME280;39353;42.864;12.014;2023-07-08T05:20:01;97902.48;;;25.24;51.28
52653;BME280;39353;42.864;12.014;2023-07-08T05:22:45;97918.86;;;25.24;51.44
52653;BME280;39353;42.864;12.014;2023-07-08T05:25:26;97919.66;;;25.26;51.69
52653;BME280;39353;42.864;12.014;2023-07-08T05:28:08;97922.98;;;25.27;51.31
52653;BME280;39353;42.864;12.014;2023-07-08T05:30:40;97938.82;;;25.25;50.94
52653;BME280;39353;42.864;12.014;2023-07-08T05:36:07;97956.28;;;25.23;50.69
52653;BME280;39353;42.864;12.014;2023-07-08T05:42:06;97946.48;;;25.23;49.87
52653;BME280;39353;42.864;12.014;2023-07-08T05:48:08;97890.21;;;25.28;49.01
52653;BME280;39353;42.864;12.014;2023-07-08T05:53:54;97915.64;;;25.25;50.54
52653;BME280;39353;42.864;12.014;2023-07-08T06:00:07;97989.71;;;25.40;50.90
52653;BME280;39353;42.864;12.014;2023-07-08T06:06:00;97953.77;;;25.40;50.97
52653;BME280;39353;42.864;12.014;2023-07-08T06:08:42;97926.23;;;25.39;51.16
52653;BME280;39353;42.864;12.014;2023-07-08T06:14:42;97953.60;;;25.56;50.47
52653;BME280;39353;42.864;12.014;2023-07-08T06:20:51;97980.32;;;25.65;50.19
52653;BME280;39353;42.864;12.014;2023-07-08T06:26:38;98006.98;;;25.68;50.10
52653;BME280;39353;42.864;12.014;2023-07-08T06:32:24;98005.30;;;25.75;49.80
52653;BME280;39353;42.864;12.014;2023-07-08T06:34:52;98008.52;;;25.84;49.65
52653;BME280;39353;42.864;12.014;2023-07-08T06:37:34;97999.25;;;25.90;49.74
52653;BME280;39353;42.864;12.014;2023-07-08T06:40:15;97996.98;;;25.96;50.14
52653;BME280;39353;42.864;12.014;2023-07-08T06:43:00;97995.41;;;26.01;50.61
52653;BME280;39353;42.864;12.014;2023-07-08T06:45:46;97997.27;;;26.03;51.27
52653;BME280;39353;42.864;12.014;2023-07-08T06:48:14;97991.28;;;26.07;51.83
52653;BME280;39353;42.864;12.014;2023-07-08T06:50:56;97987.90;;;26.12;51.80
52653;BME280;39353;42.864;12.014;2023-07-08T06:53:24;97993.61;;;26.13;51.76
52653;BME280;39353;42.864;12.014;2023-07-08T06:55:52;97988.48;;;26.16;51.67
52653;BME280;39353;42.864;12.014;2023-07-08T06:58:33;97982.75;;;26.18;51.38
52653;BME280;39353;42.864;12.014;2023-07-08T07:01:16;97972.10;;;26.19;51.37
52653;BME280;39353;42.864;12.014;2023-07-08T07:03:43;97961.77;;;26.20;51.18
52653;BME280;39353;42.864;12.014;2023-07-08T07:06:11;97946.83;;;26.25;51.46
52653;BME280;39353;42.864;12.014;2023-07-08T07:08:39;97943.56;;;26.30;51.30
52653;BME280;39353;42.864;12.014;2023-07-08T07:11:06;97945.13;;;26.25;51.56
52653;BME280;39353;42.864;12.014;2023-07-08T07:13:34;97958.83;;;26.22;51.52
52653;BME280;39353;42.864;12.014;2023-07-08T07:16:15;97970.59;;;26.20;51.47
52653;BME280;39353;42.864;12.014;2023-07-08T07:18:58;97976.79;;;26.20;51.31
52653;BME280;39353;42.864;12.014;2023-07-08T07:21:38;97979.30;;;26.22;51.09
52653;BME280;39353;42.864;12.014;2023-07-08T07:24:07;97987.69;;;26.30;50.87
52653;BME280;39353;42.864;12.014;2023-07-08T07:26:48;97990.03;;;26.40;50.92
52653;BME280;39353;42.864;12.014;2023-07-08T07:29:47;97996.50;;;26.45;50.63
52653;BME280;39353;42.864;12.014;2023-07-08T07:32:17;97999.52;;;26.55;50.54
52653;BME280;39353;42.864;12.014;2023-07-08T07:34:47;97988.95;;;26.64;50.04
52653;BME280;39353;42.864;12.014;2023-07-08T07:37:16;97981.87;;;26.68;50.76
52653;BME280;39353;42.864;12.014;2023-07-08T07:39:58;97983.41;;;26.69;50.65
52653;BME280;39353;42.864;12.014;2023-07-08T07:42:27;97989.06;;;26.71;50.79
52653;BME280;39353;42.864;12.014;2023-07-08T07:44:54;97992.94;;;26.72;50.72
52653;BME280;39353;42.864;12.014;2023-07-08T07:47:22;97989.34;;;26.75;49.72
52653;BME280;39353;42.864;12.014;2023-07-08T07:49:49;97988.14;;;26.81;49.09
52653;BME280;39353;42.864;12.014;2023-07-08T07:52:31;97991.29;;;26.80;49.35
52653;BME280;39353;42.864;12.014;2023-07-08T07:55:12;97989.27;;;26.82;49.15
52653;BME280;39353;42.864;12.014;2023-07-08T07:57:39;97980.42;;;26.84;48.61
52653;BME280;39353;42.864;12.014;2023-07-08T08:00:22;97977.21;;;26.83;48.35
52653;BME280;39353;42.864;12.014;2023-07-08T08:03:04;97977.20;;;26.76;46.11
52653;BME280;39353;42.864;12.014;2023-07-08T08:05:31;97990.01;;;26.71;46.55
52653;BME280;39353;42.864;12.014;2023-07-08T08:08:13;98008.02;;;26.72;46.57
52653;BME280;39353;42.864;12.014;2023-07-08T08:10:42;98019.31;;;26.75;46.58
52653;BME280;39353;42.864;12.014;2023-07-08T08:13:24;98022.12;;;26.82;46.01
52653;BME280;39353;42.864;12.014;2023-07-08T08:15:56;98026.98;;;26.87;46.56
52653;BME280;39353;42.864;12.014;2023-07-08T08:18:25;98026.61;;;26.92;47.29
52653;BME280;39353;42.864;12.014;2023-07-08T08:20:53;98028.85;;;26.99;47.46
52653;BME280;39353;42.864;12.014;2023-07-08T08:23:35;98036.62;;;26.98;48.26
52653;BME280;39353;42.864;12.014;2023-07-08T08:26:17;98038.64;;;27.00;48.51
52653;BME280;39353;42.864;12.014;2023-07-08T08:28:45;98037.42;;;27.00;47.88
52653;BME280;39353;42.864;12.014;2023-07-08T08:31:27;98036.48;;;26.97;48.08
52653;BME280;39353;42.864;12.014;2023-07-08T08:33:55;98037.48;;;27.00;47.97
52653;BME280;39353;42.864;12.014;2023-07-08T08:36:23;98039.14;;;27.02;48.01
52653;BME280;39353;42.864;12.014;2023-07-08T08:38:51;98026.64;;;27.02;48.30
52653;BME280;39353;42.864;12.014;2023-07-08T08:41:36;98018.55;;;26.97;47.70
52653;BME280;39353;42.864;12.014;2023-07-08T08:44:10;98012.77;;;26.98;46.59
52653;BME280;39353;42.864;12.014;2023-07-08T08:46:52;98008.54;;;26.99;46.00
52653;BME280;39353;42.864;12.014;2023-07-08T08:49:44;98014.46;;;26.98;45.07
52653;BME280;39353;42.864;12.014;2023-07-08T08:52:28;98020.52;;;26.96;44.97
52653;BME280;39353;42.864;12.014;2023-07-08T08:55:12;98020.63;;;27.00;44.52
52653;BME280;39353;42.864;12.014;2023-07-08T08:58:06;98014.98;;;27.03;44.65
52653;BME280;39353;42.864;12.014;2023-07-08T09:00:47;98013.91;;;27.05;44.52
52653;BME280;39353;42.864;12.014;2023-07-08T09:03:55;98009.85;;;27.06;44.44
52653;BME280;39353;42.864;12.014;2023-07-08T09:06:39;98011.55;;;27.10;44.07
52653;BME280;39353;42.864;12.014;2023-07-08T09:09:30;98010.99;;;27.13;44.45
52653;BME280;39353;42.864;12.014;2023-07-08T09:12:09;98010.87;;;27.17;44.51
52653;BME280;39353;42.864;12.014;2023-07-08T09:14:51;98013.56;;;27.21;44.28
52653;BME280;39353;42.864;12.014;2023-07-08T09:17:28;98013.20;;;27.23;44.42
52653;BME280;39353;42.864;12.014;2023-07-08T09:20:26;98002.17;;;27.27;44.37
52653;BME280;39353;42.864;12.014;2023-07-08T09:23:24;97995.20;;;27.24;43.74
52653;BME280;39353;42.864;12.014;2023-07-08T09:25:59;97994.77;;;27.23;42.41
52653;BME280;39353;42.864;12.014;2023-07-08T09:28:41;98001.38;;;27.24;42.23
52653;BME280;39353;42.864;12.014;2023-07-08T09:31:30;98001.49;;;27.25;42.60
52653;BME280;39353;42.864;12.014;2023-07-08T09:34:16;98006.95;;;27.30;42.95
52653;BME280;39353;42.864;12.014;2023-07-08T09:36:47;98008.13;;;27.35;42.68
52653;BME280;39353;42.864;12.014;2023-07-08T09:39:29;98000.73;;;27.38;42.00
52653;BME280;39353;42.864;12.014;2023-07-08T09:42:06;97990.01;;;27.41;42.01
52653;BME280;39353;42.864;12.014;2023-07-08T09:44:38;97992.24;;;27.44;41.52
52653;BME280;39353;42.864;12.014;2023-07-08T09:47:27;97992.29;;;27.50;41.25
52653;BME280;39353;42.864;12.014;2023-07-08T09:50:00;97993.27;;;27.55;41.70
52653;BME280;39353;42.864;12.014;2023-07-08T09:52:30;97993.83;;;27.59;42.09
52653;BME280;39353;42.864;12.014;2023-07-08T09:55:13;97995.28;;;27.61;42.12
52653;BME280;39353;42.864;12.014;2023-07-08T09:57:58;97998.29;;;27.64;41.14
52653;BME280;39353;42.864;12.014;2023-07-08T10:00:42;97993.69;;;27.67;40.38
52653;BME280;39353;42.864;12.014;2023-07-08T10:03:30;97987.63;;;27.68;40.69
52653;BME280;39353;42.864;12.014;2023-07-08T10:06:31;97983.02;;;27.71;40.85
52653;BME280;39353;42.864;12.014;2023-07-08T10:09:23;97977.62;;;27.71;41.33
52653;BME280;39353;42.864;12.014;2023-07-08T10:12:11;97980.36;;;27.74;41.88
52653;BME280;39353;42.864;12.014;2023-07-08T10:15:39;97982.23;;;27.78;41.99
52653;BME280;39353;42.864;12.014;2023-07-08T10:18:15;97978.04;;;27.79;41.90
52653;BME280;39353;42.864;12.014;2023-07-08T10:38:53;97966.15;;;27.99;40.59
52653;BME280;39353;42.864;12.014;2023-07-08T10:59:46;97962.95;;;28.43;43.74
52653;BME280;39353;42.864;12.014;2023-07-08T11:05:43;97968.64;;;28.48;43.32
52653;BME280;39353;42.864;12.014;2023-07-08T11:11:16;97964.90;;;28.57;44.14
52653;BME280;39353;42.864;12.014;2023-07-08T11:13:55;97961.95;;;28.60;45.10
52653;BME280;39353;42.864;12.014;2023-07-08T11:17:00;97960.94;;;28.57;44.75
52653;BME280;39353;42.864;12.014;2023-07-08T11:19:38;97954.25;;;28.56;43.85
52653;BME280;39353;42.864;12.014;2023-07-08T11:22:11;97952.69;;;28.53;43.10
52653;BME280;39353;42.864;12.014;2023-07-08T11:24:57;97952.14;;;28.54;43.32
52653;BME280;39353;42.864;12.014;2023-07-08T11:27:37;97949.65;;;28.53;43.32
52653;BME280;39353;42.864;12.014;2023-07-08T11:30:20;97950.81;;;28.55;43.25
52653;BME280;39353;42.864;12.014;2023-07-08T11:33:12;97953.04;;;28.57;44.14
52653;BME280;39353;42.864;12.014;2023-07-08T11:35:57;97953.77;;;28.59;44.23
52653;BME280;39353;42.864;12.014;2023-07-08T11:38:52;97949.13;;;28.57;44.09
52653;BME280;39353;42.864;12.014;2023-07-08T11:41:23;97948.05;;;28.63;43.49
52653;BME280;39353;42.864;12.014;2023-07-08T11:43:59;97948.84;;;28.66;43.03
52653;BME280;39353;42.864;12.014;2023-07-08T11:46:33;97950.39;;;28.67;42.78
52653;BME280;39353;42.864;12.014;2023-07-08T11:49:12;97949.90;;;28.69;42.73
52653;BME280;39353;42.864;12.014;2023-07-08T11:51:44;97950.50;;;28.67;42.87
52653;BME280;39353;42.864;12.014;2023-07-08T11:54:29;97949.18;;;28.67;43.00
52653;BME280;39353;42.864;12.014;2023-07-08T11:59:40;97949.31;;;28.69;43.98
52653;BME280;39353;42.864;12.014;2023-07-08T12:02:17;97944.55;;;28.68;43.98
52653;BME280;39353;42.864;12.014;2023-07-08T12:05:03;97939.20;;;28.68;44.13
52653;BME280;39353;42.864;12.014;2023-07-08T12:07:45;97930.65;;;28.70;44.06
52653;BME280;39353;42.864;12.014;2023-07-08T12:12:51;97927.21;;;28.76;43.98
52653;BME280;39353;42.864;12.014;2023-07-08T12:15:25;97924.33;;;28.74;43.90
52653;BME280;39353;42.864;12.014;2023-07-08T12:18:51;97918.73;;;28.72;43.94
52653;BME280;39353;42.864;12.014;2023-07-08T12:21:00;97918.24;;;28.73;44.36
52653;BME280;39353;42.864;12.014;2023-07-08T12:23:28;97919.69;;;28.73;44.68
52653;BME280;39353;42.864;12.014;2023-07-08T12:26:10;97917.07;;;28.78;44.63
52653;BME280;39353;42.864;12.014;2023-07-08T12:28:39;97918.19;;;28.80;44.50
52653;BME280;39353;42.864;12.014;2023-07-08T12:31:19;97917.87;;;28.82;44.86
52653;BME280;39353;42.864;12.014;2023-07-08T12:34:00;97913.94;;;28.81;44.38
52653;BME280;39353;42.864;12.014;2023-07-08T12:36:30;97912.95;;;28.81;44.67
52653;BME280;39353;42.864;12.014;2023-07-08T12:39:02;97914.99;;;28.83;45.23
52653;BME280;39353;42.864;12.014;2023-07-08T12:41:45;97917.16;;;28.84;45.26
52653;BME280;39353;42.864;12.014;2023-07-08T12:44:21;97915.55;;;28.84;44.90
52653;BME280;39353;42.864;12.014;2023-07-08T12:46:52;97915.45;;;28.83;43.97
52653;BME280;39353;42.864;12.014;2023-07-08T12:49:34;97916.17;;;28.88;43.51
52653;BME280;39353;42.864;12.014;2023-07-08T12:52:19;97911.48;;;28.87;43.11
52653;BME280;39353;42.864;12.014;2023-07-08T12:54:49;97912.19;;;28.85;43.31
52653;BME280;39353;42.864;12.014;2023-07-08T12:57:19;97913.73;;;28.82;43.47
52653;BME280;39353;42.864;12.014;2023-07-08T12:59:47;97913.91;;;28.79;43.46
52653;BME280;39353;42.864;12.014;2023-07-08T13:02:32;97911.84;;;28.81;43.26
52653;BME280;39353;42.864;12.014;2023-07-08T13:05:14;97907.38;;;28.84;43.21
52653;BME280;39353;42.864;12.014;2023-07-08T13:07:43;97904.83;;;28.81;43.34
52653;BME280;39353;42.864;12.014;2023-07-08T13:10:24;97904.05;;;28.81;43.44
52653;BME280;39353;42.864;12.014;2023-07-08T13:13:13;97904.98;;;28.81;44.17
52653;BME280;39353;42.864;12.014;2023-07-08T13:15:45;97903.11;;;28.82;44.45
52653;BME280;39353;42.864;12.014;2023-07-08T13:18:24;97900.25;;;28.82;44.37
52653;BME280;39353;42.864;12.014;2023-07-08T13:20:55;97899.05;;;28.86;44.44
52653;BME280;39353;42.864;12.014;2023-07-08T13:23:37;97901.98;;;28.87;44.18
52653;BME280;39353;42.864;12.014;2023-07-08T13:26:23;97896.30;;;28.86;44.38
52653;BME280;39353;42.864;12.014;2023-07-08T13:29:14;97891.16;;;28.87;44.32
52653;BME280;39353;42.864;12.014;2023-07-08T13:32:03;97890.72;;;28.87;43.99
52653;BME280;39353;42.864;12.014;2023-07-08T13:34:51;97889.06;;;28.89;43.87
52653;BME280;39353;42.864;12.014;2023-07-08T13:37:32;97886.02;;;28.88;44.00
52653;BME280;39353;42.864;12.014;2023-07-08T13:40:13;97882.76;;;28.87;44.06
52653;BME280;39353;42.864;12.014;2023-07-08T13:42:55;97881.65;;;28.88;44.23
52653;BME280;39353;42.864;12.014;2023-07-08T13:45:36;97877.14;;;28.92;43.91
52653;BME280;39353;42.864;12.014;2023-07-08T13:48:28;97872.96;;;28.94;44.00
52653;BME280;39353;42.864;12.014;2023-07-08T13:51:10;97874.52;;;28.97;44.11
52653;BME280;39353;42.864;12.014;2023-07-08T13:56:34;97872.58;;;29.02;44.18
52653;BME280;39353;42.864;12.014;2023-07-08T13:59:21;97866.46;;;29.05;44.35
52653;BME280;39353;42.864;12.014;2023-07-08T14:02:24;97864.48;;;29.08;44.13
52653;BME280;39353;42.864;12.014;2023-07-08T14:04:55;97860.02;;;29.11;44.19
52653;BME280;39353;42.864;12.014;2023-07-08T14:07:28;97861.19;;;29.11;44.57
52653;BME280;39353;42.864;12.014;2023-07-08T14:10:00;97858.98;;;29.15;43.74
52653;BME280;39353;42.864;12.014;2023-07-08T14:12:42;97860.02;;;29.23;43.18
52653;BME280;39353;42.864;12.014;2023-07-08T14:15:10;97859.01;;;29.25;43.59
52653;BME280;39353;42.864;12.014;2023-07-08T14:17:51;97855.86;;;29.27;44.25
52653;BME280;39353;42.864;12.014;2023-07-08T14:20:32;97857.23;;;29.29;44.52
52653;BME280;39353;42.864;12.014;2023-07-08T14:23:13;97852.52;;;29.36;44.57
52653;BME280;39353;42.864;12.014;2023-07-08T14:25:42;97850.70;;;29.35;44.53
52653;BME280;39353;42.864;12.014;2023-07-08T14:28:23;97848.46;;;29.52;44.24
52653;BME280;39353;42.864;12.014;2023-07-08T14:31:10;97843.70;;;29.59;43.95
52653;BME280;39353;42.864;12.014;2023-07-08T14:33:39;97846.20;;;29.62;43.80
52653;BME280;39353;42.864;12.014;2023-07-08T14:36:09;97847.91;;;29.68;43.50
52653;BME280;39353;42.864;12.014;2023-07-08T14:38:37;97847.14;;;29.70;43.29
52653;BME280;39353;42.864;12.014;2023-07-08T14:41:05;97848.24;;;29.72;42.79
52653;BME280;39353;42.864;12.014;2023-07-08T14:43:33;97846.36;;;29.72;42.79
52653;BME280;39353;42.864;12.014;2023-07-08T14:49:19;97843.27;;;29.70;43.64
52653;BME280;39353;42.864;12.014;2023-07-08T14:51:50;97845.10;;;29.69;43.72
52653;BME280;39353;42.864;12.014;2023-07-08T14:54:31;97845.25;;;29.67;43.62
52653;BME280;39353;42.864;12.014;2023-07-08T14:57:15;97845.59;;;29.60;43.92
52653;BME280;39353;42.864;12.014;2023-07-08T14:59:43;97839.29;;;29.55;44.18
52653;BME280;39353;42.864;12.014;2023-07-08T15:02:28;97841.98;;;29.54;44.08
52653;BME280;39353;42.864;12.014;2023-07-08T15:04:55;97839.05;;;29.57;43.82
52653;BME280;39353;42.864;12.014;2023-07-08T15:07:36;97838.96;;;29.65;43.51
52653;BME280;39353;42.864;12.014;2023-07-08T15:10:04;97834.48;;;29.73;43.10
52653;BME280;39353;42.864;12.014;2023-07-08T15:12:31;97839.17;;;29.87;42.61
52653;BME280;39353;42.864;12.014;2023-07-08T15:14:58;97837.02;;;29.88;42.94
52653;BME280;39353;42.864;12.014;2023-07-08T15:17:26;97837.06;;;29.85;43.08
52653;BME280;39353;42.864;12.014;2023-07-08T15:19:53;97839.17;;;29.81;43.19
52653;BME280;39353;42.864;12.014;2023-07-08T15:22:34;97838.73;;;29.73;43.53
52653;BME280;39353;42.864;12.014;2023-07-08T15:25:01;97836.85;;;29.63;43.75
52653;BME280;39353;42.864;12.014;2023-07-08T15:27:29;97833.91;;;29.59;43.93
52653;BME280;39353;42.864;12.014;2023-07-08T15:29:56;97831.76;;;29.55;44.35
52653;BME280;39353;42.864;12.014;2023-07-08T15:32:23;97826.41;;;29.52;44.45
52653;BME280;39353;42.864;12.014;2023-07-08T15:35:12;97828.49;;;29.56;44.64
52653;BME280;39353;42.864;12.014;2023-07-08T15:37:53;97827.84;;;29.56;45.14